Time;durP1;ratioP1;P1;durP2;ratioP2;P2;SDS_P1;SDS_P2;PMS_P1;PMS_P2;Temp;Humidity;BMP_temperature;BMP_pressure;BME280_temperature;BME280_humidity;BME280_pressure;Samples;Min_cycle;Max_cycle;Signal;HPM_P1;HPM_P2
2024/01/17 00:02:52;;;;;;;13.88;7.13;;;0.00;86.50;;;;;;9176918;19;20014;-70
2024/01/17 00:05:58;;;;;;;24.08;8.38;;;0.00;86.50;;;;;;9171803;19;20494;-72
2024/01/17 00:09:09;;;;;;;19.05;7.57;;;0.00;86.50;;;;;;9168724;19;20017;-72
2024/01/17 00:12:15;;;;;;;19.38;7.55;;;0.00;86.50;;;;;;9177144;19;20021;-70
2024/01/17 00:15:22;;;;;;;15.15;7.50;;;0.00;86.50;;;;;;9176562;19;20361;-71
2024/01/17 00:18:28;;;;;;;15.32;6.95;;;0.00;86.50;;;;;;9176066;19;20017;-70
2024/01/17 00:21:38;;;;;;;24.40;7.88;;;0.00;86.40;;;;;;9173894;19;20019;-71
2024/01/17 00:24:46;;;;;;;15.32;7.00;;;0.00;86.50;;;;;;9176096;19;20055;-71
2024/01/17 00:27:53;;;;;;;18.35;8.02;;;0.00;86.50;;;;;;9177002;19;20022;-71
2024/01/17 00:30:59;;;;;;;18.25;8.00;;;0.00;86.50;;;;;;9176420;19;20015;-71
2024/01/17 00:34:07;;;;;;;17.95;7.40;;;0.00;86.60;;;;;;9175536;19;20070;-70
2024/01/17 00:37:13;;;;;;;16.80;8.23;;;0.00;86.50;;;;;;9176331;19;20113;-71
2024/01/17 00:40:24;;;;;;;14.98;8.40;;;0.00;86.50;;;;;;9176290;19;20021;-71
2024/01/17 00:43:30;;;;;;;13.52;7.47;;;0.00;87.10;;;;;;9176143;19;20024;-70
2024/01/17 00:46:37;;;;;;;24.10;8.55;;;0.00;86.60;;;;;;9175112;19;20532;-71
2024/01/17 00:49:43;;;;;;;16.80;8.32;;;0.00;86.60;;;;;;9174494;19;20021;-71
2024/01/17 00:52:51;;;;;;;18.30;8.40;;;0.00;86.60;;;;;;9174184;19;20022;-70
2024/01/17 00:55:59;;;;;;;17.75;7.13;;;0.00;86.50;;;;;;9175253;19;20014;-70
2024/01/17 00:59:06;;;;;;;14.85;8.05;;;0.00;86.60;;;;;;9176065;19;20377;-71
2024/01/17 01:02:12;;;;;;;20.13;7.63;;;0.00;86.60;;;;;;9173773;19;20010;-71
2024/01/17 01:05:20;;;;;;;17.27;7.40;;;-0.10;86.50;;;;;;9170921;19;20020;-71
2024/01/17 01:08:25;;;;;;;17.90;7.72;;;-0.10;86.50;;;;;;9170702;19;20108;-69
2024/01/17 01:11:36;;;;;;;21.20;7.72;;;-0.10;86.50;;;;;;9170659;19;20015;-70
2024/01/17 01:14:42;;;;;;;13.32;7.25;;;-0.10;86.50;;;;;;9173678;19;20014;-71
2024/01/17 01:17:50;;;;;;;19.35;7.25;;;-0.10;86.50;;;;;;9173847;19;20503;-71
2024/01/17 01:20:57;;;;;;;16.95;7.72;;;-0.10;86.50;;;;;;9173651;19;20551;-73
2024/01/17 01:24:04;;;;;;;15.45;7.47;;;-0.10;86.50;;;;;;9173509;19;20019;-73
2024/01/17 01:27:13;;;;;;;18.42;7.32;;;-0.10;86.40;;;;;;9174961;19;20018;-71
2024/01/17 01:30:23;;;;;;;18.73;8.13;;;-0.10;86.50;;;;;;9172661;19;20510;-71
2024/01/17 01:33:28;;;;;;;18.45;7.47;;;-0.10;86.40;;;;;;9174985;19;20018;-71
2024/01/17 01:36:39;;;;;;;16.50;7.35;;;-0.10;86.40;;;;;;9181509;19;20019;-70
2024/01/17 01:39:45;;;;;;;20.08;7.38;;;-0.10;86.40;;;;;;9183422;19;20363;-71
2024/01/17 01:42:58;;;;;;;16.60;6.82;;;-0.20;86.30;;;;;;9182538;19;20028;-70
2024/01/17 01:46:21;;;;;;;19.13;7.85;;;-0.20;86.30;;;;;;9181326;19;20023;-71
2024/01/17 01:49:29;;;;;;;16.17;7.03;;;-0.20;86.40;;;;;;9180364;19;20785;-72
2024/01/17 01:52:35;;;;;;;18.60;6.82;;;-0.20;86.40;;;;;;9182635;19;20011;-70
2024/01/17 01:55:43;;;;;;;12.95;6.60;;;-0.20;86.40;;;;;;9179623;19;20025;-71
2024/01/17 01:59:12;;;;;;;15.32;7.13;;;-0.30;86.40;;;;;;9181710;19;20070;-70
2024/01/17 02:02:20;;;;;;;14.80;7.10;;;-0.20;86.40;;;;;;9179803;19;20015;-71
2024/01/17 02:05:26;;;;;;;20.10;7.22;;;-0.20;86.50;;;;;;9181680;19;20044;-71
2024/01/17 02:08:37;;;;;;;15.32;7.15;;;-0.30;87.00;;;;;;9176098;19;20362;-70
2024/01/17 02:11:43;;;;;;;17.85;7.10;;;-0.30;86.40;;;;;;9175664;19;20023;-71
2024/01/17 02:14:53;;;;;;;20.35;6.72;;;-0.30;86.40;;;;;;9181342;19;20014;-70
2024/01/17 02:17:59;;;;;;;11.18;6.32;;;-0.30;86.40;;;;;;9178998;19;20385;-71
2024/01/17 02:21:07;;;;;;;12.05;7.28;;;-0.30;86.40;;;;;;9180221;19;20890;-71
2024/01/17 02:24:20;;;;;;;15.27;7.15;;;-0.30;86.40;;;;;;9180989;19;20022;-72
2024/01/17 02:27:28;;;;;;;16.85;6.95;;;-0.30;86.40;;;;;;9180066;19;20026;-71
2024/01/17 02:30:34;;;;;;;17.67;6.93;;;-0.40;86.30;;;;;;9176545;19;20053;-70
2024/01/17 02:33:44;;;;;;;21.20;7.25;;;-0.30;86.40;;;;;;9180284;19;20022;-70
2024/01/17 02:36:50;;;;;;;21.25;6.93;;;-0.40;86.20;;;;;;9179008;19;20385;-70
2024/01/17 02:40:00;;;;;;;14.48;7.03;;;-0.40;86.20;;;;;;9177563;19;20101;-70
2024/01/17 02:43:13;;;;;;;15.50;6.45;;;-0.40;86.20;;;;;;9179207;19;20022;-70
2024/01/17 02:46:20;;;;;;;15.02;7.53;;;-0.40;86.30;;;;;;9178194;19;20473;-71
2024/01/17 02:49:26;;;;;;;14.40;7.30;;;-0.40;86.30;;;;;;9178401;19;20033;-70
2024/01/17 02:52:34;;;;;;;17.38;7.15;;;-0.50;86.30;;;;;;9177922;19;20018;-70
2024/01/17 02:55:42;;;;;;;14.50;6.70;;;-0.50;86.30;;;;;;9179383;19;20390;-70
2024/01/17 02:58:49;;;;;;;21.30;6.75;;;-0.50;86.30;;;;;;9177786;19;20473;-70
2024/01/17 03:01:55;;;;;;;18.42;8.13;;;-0.50;86.90;;;;;;9178004;19;20473;-70
2024/01/17 03:05:03;;;;;;;9.52;6.47;;;-0.50;86.30;;;;;;9178802;19;20613;-71
2024/01/17 03:08:15;;;;;;;17.73;7.45;;;-0.50;86.40;;;;;;9176094;19;20013;-71
2024/01/17 03:11:25;;;;;;;14.68;7.53;;;-0.50;86.40;;;;;;9172781;19;20615;-70
2024/01/17 03:14:31;;;;;;;24.52;7.43;;;-0.50;86.30;;;;;;9178806;19;20010;-70
2024/01/17 03:17:39;;;;;;;17.60;7.05;;;-0.60;86.20;;;;;;9178503;19;20022;-69
2024/01/17 03:20:49;;;;;;;14.88;6.65;;;-0.60;86.20;;;;;;9175959;19;20034;-71
2024/01/17 03:24:01;;;;;;;15.30;6.97;;;-0.60;86.20;;;;;;9177176;19;20014;-71
2024/01/17 03:27:10;;;;;;;16.00;6.60;;;-0.60;86.20;;;;;;9177569;19;20018;-70
2024/01/17 03:30:18;;;;;;;13.25;6.45;;;-0.60;86.30;;;;;;9174555;19;20369;-71
2024/01/17 03:33:24;;;;;;;16.30;7.45;;;-0.60;86.30;;;;;;9178045;19;20006;-72
2024/01/17 03:36:31;;;;;;;18.00;6.78;;;-0.60;86.30;;;;;;9177976;19;20029;-71
2024/01/17 03:39:37;;;;;;;16.05;7.30;;;-0.60;86.40;;;;;;9174848;19;20049;-70
2024/01/17 03:42:47;;;;;;;18.92;7.72;;;-0.60;86.30;;;;;;9178241;19;20534;-71
2024/01/17 03:45:54;;;;;;;16.10;6.97;;;-0.60;86.30;;;;;;9178457;19;20014;-71
2024/01/17 03:49:02;;;;;;;17.33;7.43;;;-0.60;86.30;;;;;;9178533;19;20026;-71
2024/01/17 03:52:09;;;;;;;12.93;7.40;;;-0.60;86.20;;;;;;9174898;19;20018;-70
2024/01/17 03:55:16;;;;;;;12.52;6.45;;;-0.60;86.20;;;;;;9175414;19;20022;-71
2024/01/17 03:58:25;;;;;;;12.15;6.57;;;-0.60;86.20;;;;;;9174821;19;20350;-70
2024/01/17 04:01:32;;;;;;;12.48;7.05;;;-0.60;86.30;;;;;;9176206;19;20024;-71
2024/01/17 04:04:38;;;;;;;13.50;7.07;;;-0.60;86.30;;;;;;9177395;19;20006;-70
2024/01/17 04:07:45;;;;;;;15.13;7.03;;;-0.60;86.30;;;;;;9176116;19;20022;-71
2024/01/17 04:10:51;;;;;;;16.25;6.93;;;-0.60;86.40;;;;;;9171594;19;20700;-72
2024/01/17 04:14:01;;;;;;;18.80;7.18;;;-0.60;86.40;;;;;;9175638;19;20021;-70
2024/01/17 04:17:11;;;;;;;17.33;7.00;;;-0.60;86.30;;;;;;9177195;19;20026;-71
2024/01/17 04:20:19;;;;;;;29.23;7.53;;;-0.60;86.30;;;;;;9177323;19;20123;-71
2024/01/17 04:23:24;;;;;;;13.50;6.72;;;-0.50;86.40;;;;;;9177339;19;20014;-71
2024/01/17 04:26:32;;;;;;;16.45;7.15;;;-0.50;86.40;;;;;;9176580;19;20023;-71
2024/01/17 04:29:40;;;;;;;17.08;6.78;;;-0.50;86.30;;;;;;9177197;19;20027;-71
2024/01/17 04:32:47;;;;;;;11.20;6.30;;;-0.50;86.30;;;;;;9174818;19;20022;-72
2024/01/17 04:35:53;;;;;;;13.95;6.55;;;-0.50;86.30;;;;;;9176595;19;20017;-70
2024/01/17 04:39:04;;;;;;;16.95;5.82;;;-0.50;86.30;;;;;;9176564;19;20028;-70
2024/01/17 04:42:10;;;;;;;9.68;5.80;;;-0.50;86.30;;;;;;9175217;19;20010;-71
2024/01/17 04:45:20;;;;;;;16.63;6.82;;;-0.50;86.30;;;;;;9175728;19;20033;-72
2024/01/17 04:48:26;;;;;;;12.40;6.10;;;-0.50;86.30;;;;;;9176699;19;20412;-70
2024/01/17 04:51:33;;;;;;;13.05;6.47;;;-0.50;86.30;;;;;;9172570;19;20352;-71
2024/01/17 04:54:39;;;;;;;13.50;6.85;;;-0.50;86.20;;;;;;9176171;19;20078;-71
2024/01/17 04:57:47;;;;;;;20.35;6.82;;;-0.50;86.20;;;;;;9175779;19;20041;-71
2024/01/17 05:00:55;;;;;;;16.10;6.20;;;-0.50;86.20;;;;;;9175236;19;20017;-71
2024/01/17 05:04:03;;;;;;;9.85;6.03;;;-0.50;86.20;;;;;;9174453;19;20025;-70
2024/01/17 05:07:08;;;;;;;13.50;5.55;;;-0.50;86.20;;;;;;9174127;19;20025;-70
2024/01/17 05:10:16;;;;;;;14.70;6.50;;;-0.50;86.20;;;;;;9179104;19;20018;-72
2024/01/17 05:13:22;;;;;;;17.20;6.90;;;-0.50;86.20;;;;;;9184240;19;20086;-71
2024/01/17 05:16:32;;;;;;;15.48;6.40;;;-0.50;86.20;;;;;;9184570;19;20029;-71
2024/01/17 05:19:38;;;;;;;16.30;6.55;;;-0.50;86.20;;;;;;9182917;19;20014;-70
2024/01/17 05:22:46;;;;;;;11.52;5.82;;;-0.50;86.80;;;;;;9182033;19;20019;-71
2024/01/17 05:25:52;;;;;;;12.38;6.03;;;-0.60;86.10;;;;;;9183979;19;20018;-70
2024/01/17 05:28:59;;;;;;;11.18;5.47;;;-0.50;86.10;;;;;;9184526;19;20773;-70
2024/01/17 05:32:07;;;;;;;11.73;5.97;;;-0.60;86.10;;;;;;9182191;19;20597;-69
2024/01/17 05:35:15;;;;;;;14.57;5.93;;;-0.60;86.10;;;;;;9183512;19;20041;-71
2024/01/17 05:38:21;;;;;;;16.92;6.75;;;-0.60;86.00;;;;;;9183407;19;20010;-71
2024/01/17 05:41:29;;;;;;;17.95;6.10;;;-0.60;86.00;;;;;;9183267;19;20018;-70
2024/01/17 05:44:34;;;;;;;14.13;6.15;;;-0.60;86.10;;;;;;9183064;19;20025;-70
2024/01/17 05:47:45;;;;;;;14.05;5.43;;;-0.60;86.00;;;;;;9180612;19;20014;-69
2024/01/17 05:50:50;;;;;;;18.80;7.10;;;-0.60;86.10;;;;;;9183332;19;20081;-70
2024/01/17 05:53:58;;;;;;;15.93;6.00;;;-0.60;86.00;;;;;;9184398;19;20264;-70
2024/01/17 05:57:04;;;;;;;13.60;7.15;;;-0.60;86.00;;;;;;9183459;19;20010;-70
2024/01/17 06:00:13;;;;;;;15.93;7.60;;;-0.70;85.90;;;;;;9182420;19;20022;-70
2024/01/17 06:03:21;;;;;;;19.02;6.95;;;-0.60;86.00;;;;;;9181468;19;20007;-70
2024/01/17 06:06:29;;;;;;;17.48;7.47;;;-0.60;86.00;;;;;;9179253;19;20010;-70
2024/01/17 06:09:35;;;;;;;14.82;6.72;;;-0.70;86.00;;;;;;9179499;19;20010;-70
2024/01/17 06:12:44;;;;;;;17.55;5.75;;;-0.70;86.00;;;;;;9182078;19;20022;-70
2024/01/17 06:15:49;;;;;;;22.40;7.15;;;-0.70;86.00;;;;;;9181854;19;20015;-73
2024/01/17 06:19:00;;;;;;;15.85;6.63;;;-0.70;85.90;;;;;;9182115;19;20022;-72
2024/01/17 06:22:06;;;;;;;13.18;6.03;;;-0.70;86.00;;;;;;9180333;19;20021;-72
2024/01/17 06:25:14;;;;;;;14.68;6.88;;;-0.70;85.90;;;;;;9181649;19;20006;-71
2024/01/17 06:28:19;;;;;;;17.73;7.00;;;-0.70;86.00;;;;;;9181629;19;20022;-71
2024/01/17 06:31:27;;;;;;;15.43;7.18;;;-0.80;86.00;;;;;;9181145;19;20018;-71
2024/01/17 06:34:36;;;;;;;21.20;7.00;;;-0.80;85.90;;;;;;9181766;19;20078;-71
2024/01/17 06:37:45;;;;;;;19.17;7.88;;;-0.80;85.80;;;;;;9179899;19;20026;-72
2024/01/17 06:40:50;;;;;;;15.88;6.45;;;-0.80;85.80;;;;;;9181551;19;20354;-70
2024/01/17 06:43:58;;;;;;;10.05;5.97;;;-0.80;85.90;;;;;;9179286;19;20011;-71
2024/01/17 06:47:03;;;;;;;16.63;7.43;;;-0.80;85.90;;;;;;9180112;19;20033;-71
2024/01/17 06:50:14;;;;;;;17.42;6.60;;;-0.80;85.90;;;;;;9178306;19;20010;-71
2024/01/17 06:53:21;;;;;;;16.55;7.35;;;-0.80;85.90;;;;;;9178417;19;20025;-73
2024/01/17 06:56:29;;;;;;;19.77;7.78;;;-0.90;85.90;;;;;;9180328;19;20018;-70
2024/01/17 06:59:34;;;;;;;16.17;6.68;;;-0.80;85.90;;;;;;9179029;19;20011;-70
2024/01/17 07:02:42;;;;;;;15.77;6.93;;;-0.80;86.00;;;;;;9179194;19;20016;-71
2024/01/17 07:05:50;;;;;;;18.70;7.72;;;-0.80;86.00;;;;;;9176241;19;20086;-70
2024/01/17 07:08:59;;;;;;;16.02;6.78;;;-0.80;86.00;;;;;;9176404;19;20029;-71
2024/01/17 07:12:05;;;;;;;18.83;8.52;;;-0.80;86.00;;;;;;9179251;19;20011;-73
2024/01/17 07:15:13;;;;;;;28.35;7.60;;;-0.80;86.00;;;;;;9176940;19;20002;-71
2024/01/17 07:18:18;;;;;;;17.70;6.82;;;-0.80;86.00;;;;;;9177770;19;20018;-70
2024/01/17 07:21:29;;;;;;;15.10;7.15;;;-0.80;85.90;;;;;;9178826;19;20389;-70
2024/01/17 07:24:35;;;;;;;14.20;6.32;;;-0.80;85.90;;;;;;9179348;19;20018;-69
2024/01/17 07:27:43;;;;;;;20.08;6.97;;;-0.80;85.90;;;;;;9178830;19;20014;-70
2024/01/17 07:30:49;;;;;;;24.45;7.95;;;-0.80;86.00;;;;;;9172565;19;20026;-70
2024/01/17 07:33:56;;;;;;;22.35;7.25;;;-0.80;86.00;;;;;;9174324;19;20018;-69
2024/01/17 07:37:05;;;;;;;16.42;6.55;;;-0.80;86.00;;;;;;9174989;19;20895;-70
2024/01/17 07:40:14;;;;;;;18.25;6.95;;;-0.80;85.90;;;;;;9174286;19;20019;-70
2024/01/17 07:43:19;;;;;;;17.20;7.93;;;-0.80;86.00;;;;;;9175853;19;20014;-70
2024/01/17 07:46:27;;;;;;;16.42;6.50;;;-0.80;86.00;;;;;;9175467;19;20010;-70
2024/01/17 07:49:32;;;;;;;22.58;7.43;;;-0.80;86.00;;;;;;9170993;19;20015;-69
2024/01/17 07:52:43;;;;;;;17.55;6.45;;;-0.80;85.90;;;;;;9176803;19;20496;-68
2024/01/17 07:55:48;;;;;;;18.83;8.43;;;-0.80;85.90;;;;;;9176782;19;20060;-69
2024/01/17 07:58:56;;;;;;;25.00;9.05;;;-0.80;85.90;;;;;;9177212;19;20014;-68
2024/01/17 08:02:03;;;;;;;17.55;7.60;;;-0.80;85.90;;;;;;9175141;19;20022;-69
2024/01/17 08:05:11;;;;;;;16.75;7.70;;;-0.80;86.50;;;;;;9175841;19;20019;-68
2024/01/17 08:08:19;;;;;;;21.48;7.43;;;-0.80;85.90;;;;;;9173893;19;20014;-70
2024/01/17 08:11:26;;;;;;;19.42;7.45;;;-0.80;85.90;;;;;;9172565;19;20082;-71
2024/01/17 08:14:33;;;;;;;20.55;7.63;;;-0.80;86.50;;;;;;9174101;19;20035;-70
2024/01/17 08:17:40;;;;;;;20.00;7.85;;;-0.80;86.50;;;;;;9175978;19;20354;-68
2024/01/17 08:20:47;;;;;;;17.55;8.00;;;-0.80;85.90;;;;;;9176028;19;20025;-71
2024/01/17 08:23:59;;;;;;;14.27;7.13;;;-0.80;85.90;;;;;;9174673;19;20113;-69
2024/01/17 08:27:04;;;;;;;21.40;8.75;;;-0.80;85.90;;;;;;9174842;19;20014;-69
2024/01/17 08:30:14;;;;;;;18.40;7.80;;;-0.80;85.80;;;;;;9176289;19;20611;-69
2024/01/17 08:33:19;;;;;;;17.83;7.53;;;-0.80;85.80;;;;;;9173781;19;20038;-69
2024/01/17 08:36:31;;;;;;;20.65;8.68;;;-0.80;85.80;;;;;;9172899;19;20022;-70
2024/01/17 08:39:41;;;;;;;27.35;8.75;;;-0.80;85.70;;;;;;9175037;19;20370;-70
2024/01/17 08:42:49;;;;;;;24.80;7.85;;;-0.80;85.80;;;;;;9174636;19;20115;-69
2024/01/17 08:45:54;;;;;;;21.33;8.35;;;-0.80;85.80;;;;;;9175913;19;20066;-69
2024/01/17 08:49:02;;;;;;;21.05;8.98;;;-0.80;85.80;;;;;;9173031;19;20021;-69
2024/01/17 08:52:08;;;;;;;18.25;7.78;;;-0.80;85.80;;;;;;9176388;19;20010;-69
2024/01/17 08:55:18;;;;;;;23.70;8.57;;;-0.80;85.90;;;;;;9171191;19;20361;-68
2024/01/17 08:58:24;;;;;;;22.67;8.07;;;-0.80;86.40;;;;;;9172276;19;20078;-69
2024/01/17 09:01:31;;;;;;;17.92;8.40;;;-0.70;85.90;;;;;;9173755;19;20018;-71
2024/01/17 09:04:37;;;;;;;26.13;8.95;;;-0.80;85.80;;;;;;9172851;19;20018;-69
2024/01/17 09:07:45;;;;;;;19.38;7.65;;;-0.70;85.90;;;;;;9168025;19;20010;-70
2024/01/17 09:10:54;;;;;;;20.60;7.78;;;-0.70;85.80;;;;;;9170433;19;20044;-69
2024/01/17 09:14:02;;;;;;;13.32;7.43;;;-0.70;86.40;;;;;;9173334;19;20017;-71
2024/01/17 09:17:07;;;;;;;20.08;8.30;;;-0.70;85.70;;;;;;9172991;19;20027;-70
2024/01/17 09:20:16;;;;;;;20.40;8.80;;;-0.70;85.70;;;;;;9170940;19;20017;-70
2024/01/17 09:23:21;;;;;;;24.13;9.35;;;-0.70;85.70;;;;;;9174674;19;20014;-71
2024/01/17 09:26:32;;;;;;;17.15;8.90;;;-0.70;85.70;;;;;;9172357;19;20007;-70
2024/01/17 09:29:38;;;;;;;20.27;9.20;;;-0.70;85.80;;;;;;9172767;19;20018;-70
2024/01/17 09:32:47;;;;;;;19.40;8.68;;;-0.60;85.80;;;;;;9172735;19;20011;-69
2024/01/17 09:35:53;;;;;;;19.05;8.48;;;-0.60;85.70;;;;;;9170779;19;20021;-71
2024/01/17 09:39:09;;;;;;;22.70;9.07;;;-0.60;85.70;;;;;;9173221;19;20031;-72
2024/01/17 09:42:19;;;;;;;19.52;8.55;;;-0.60;85.70;;;;;;9173129;19;20453;-71
2024/01/17 09:45:29;;;;;;;28.60;10.15;;;-0.60;85.80;;;;;;9174005;19;20034;-71
2024/01/17 09:48:34;;;;;;;22.80;8.77;;;-0.50;85.90;;;;;;9172677;19;20011;-70
2024/01/17 09:51:43;;;;;;;17.98;9.07;;;-0.50;86.50;;;;;;9173812;19;20366;-69
2024/01/17 09:54:49;;;;;;;22.33;9.20;;;-0.50;85.90;;;;;;9171170;19;20365;-71
2024/01/17 09:58:01;;;;;;;18.50;8.38;;;-0.40;86.00;;;;;;9183849;19;20011;-70
2024/01/17 10:01:09;;;;;;;22.05;8.48;;;-0.40;85.90;;;;;;9181864;19;20018;-69
2024/01/17 10:04:18;;;;;;;24.95;10.60;;;-0.30;86.00;;;;;;9182940;19;20072;-71
2024/01/17 10:07:26;;;;;;;23.35;9.30;;;-0.30;86.00;;;;;;9178488;19;20485;-70
2024/01/17 10:10:33;;;;;;;17.85;8.60;;;-0.20;86.10;;;;;;9176982;19;20010;-72
2024/01/17 10:13:41;;;;;;;22.08;9.45;;;-0.20;86.00;;;;;;9179732;19;20022;-72
2024/01/17 10:16:49;;;;;;;23.23;9.60;;;-0.10;86.10;;;;;;9181928;19;20112;-72
2024/01/17 10:19:54;;;;;;;24.52;10.10;;;-0.10;86.00;;;;;;9181924;19;20029;-72
2024/01/17 10:23:03;;;;;;;22.55;10.02;;;-0.10;86.00;;;;;;9181698;19;20018;-73
2024/01/17 10:26:10;;;;;;;20.90;9.40;;;0.00;86.00;;;;;;9181391;19;20030;-73
2024/01/17 10:29:20;;;;;;;22.60;9.43;;;0.00;86.00;;;;;;9179681;19;20018;-73
2024/01/17 10:32:27;;;;;;;18.90;8.90;;;0.10;86.00;;;;;;9178689;19;20018;-72
2024/01/17 10:35:35;;;;;;;20.40;8.38;;;0.10;86.00;;;;;;9178586;19;20021;-72
2024/01/17 10:38:40;;;;;;;24.33;9.55;;;0.10;86.60;;;;;;9180464;19;20026;-72
2024/01/17 10:41:51;;;;;;;18.52;9.10;;;0.20;86.00;;;;;;9180172;19;20025;-72
2024/01/17 10:45:02;;;;;;;18.70;8.25;;;0.20;86.00;;;;;;9181733;19;20010;-72
2024/01/17 10:48:11;;;;;;;24.88;9.07;;;0.20;86.00;;;;;;9179061;19;20018;-72
2024/01/17 10:51:24;;;;;;;22.02;8.38;;;0.30;86.00;;;;;;9180890;19;20015;-73
2024/01/17 10:54:46;;;;;;;20.17;9.88;;;0.30;86.00;;;;;;9180440;19;20326;-71
2024/01/17 10:57:56;;;;;;;21.67;8.82;;;0.40;86.00;;;;;;9180538;19;20024;-71
2024/01/17 11:01:14;;;;;;;18.27;9.05;;;0.40;86.00;;;;;;9177794;19;20014;-71
2024/01/17 11:04:25;;;;;;;23.63;9.75;;;0.40;85.90;;;;;;9180620;19;20023;-71
2024/01/17 11:07:34;;;;;;;28.13;9.45;;;0.50;86.00;;;;;;9175392;19;20495;-74
2024/01/17 11:10:43;;;;;;;22.55;9.43;;;0.50;85.90;;;;;;9174673;19;20018;-72
2024/01/17 11:13:53;;;;;;;24.88;10.00;;;0.50;85.90;;;;;;9177582;19;20018;-73
2024/01/17 11:17:04;;;;;;;19.58;9.35;;;0.60;85.90;;;;;;9176155;19;20018;-72
2024/01/17 11:20:15;;;;;;;21.50;10.27;;;0.60;85.90;;;;;;9178774;19;20014;-70
2024/01/17 11:23:31;;;;;;;19.95;8.52;;;0.70;86.00;;;;;;9178407;19;20024;-70
2024/01/17 11:26:48;;;;;;;22.52;9.32;;;0.70;85.90;;;;;;9176198;19;20022;-71
2024/01/17 11:30:06;;;;;;;23.77;9.93;;;0.80;85.90;;;;;;9177914;19;20015;-71
2024/01/17 11:33:17;;;;;;;24.02;10.07;;;0.80;86.00;;;;;;9177608;19;20018;-72
2024/01/17 11:36:43;;;;;;;24.23;10.02;;;0.80;85.90;;;;;;9175760;19;20516;-70
2024/01/17 11:39:57;;;;;;;25.52;9.52;;;0.90;85.90;;;;;;9177514;19;20014;-71
2024/01/17 11:43:03;;;;;;;28.17;9.20;;;0.90;85.90;;;;;;9176186;19;20094;-72
2024/01/17 11:46:12;;;;;;;17.45;8.77;;;1.00;86.00;;;;;;9174978;19;20385;-71
2024/01/17 11:49:30;;;;;;;22.33;9.45;;;1.00;85.90;;;;;;9171703;19;20019;-72
2024/01/17 11:52:40;;;;;;;26.83;9.32;;;1.00;85.80;;;;;;9176008;19;20022;-71
2024/01/17 11:55:51;;;;;;;20.33;10.25;;;1.00;85.90;;;;;;9173171;19;20046;-72
2024/01/17 11:59:06;;;;;;;23.55;8.43;;;1.10;85.80;;;;;;9177062;19;20014;-71
2024/01/17 12:02:37;;;;;;;23.00;9.35;;;1.10;85.80;;;;;;9177832;19;20350;-71
2024/01/17 12:05:50;;;;;;;25.42;8.80;;;1.20;85.80;;;;;;9176967;19;20034;-71
2024/01/17 12:08:56;;;;;;;23.58;10.02;;;1.20;85.80;;;;;;9175382;19;20094;-72
2024/01/17 12:12:04;;;;;;;23.65;9.15;;;1.20;85.80;;;;;;9176427;19;20017;-71
2024/01/17 12:15:13;;;;;;;24.92;9.23;;;1.30;85.80;;;;;;9175249;19;20010;-72
2024/01/17 12:18:23;;;;;;;23.30;9.00;;;1.30;85.80;;;;;;9173896;19;20014;-71
2024/01/17 12:21:33;;;;;;;19.48;8.77;;;1.40;85.70;;;;;;9175248;19;20090;-71
2024/01/17 12:24:40;;;;;;;21.10;9.13;;;1.40;85.70;;;;;;9175115;19;20022;-73
2024/01/17 12:27:56;;;;;;;20.67;8.48;;;1.40;85.60;;;;;;9176599;19;20014;-71
2024/01/17 12:31:06;;;;;;;24.63;10.15;;;1.40;85.60;;;;;;9177042;19;20023;-71
2024/01/17 12:34:12;;;;;;;19.40;8.88;;;1.50;85.60;;;;;;9174063;19;20018;-71
2024/01/17 12:37:23;;;;;;;24.63;9.23;;;1.50;85.60;;;;;;9171264;19;20527;-71
2024/01/17 12:40:29;;;;;;;19.90;9.38;;;1.50;85.60;;;;;;9174883;19;20038;-72
2024/01/17 12:43:37;;;;;;;17.63;9.13;;;1.50;85.50;;;;;;9176272;19;20014;-72
2024/01/17 12:46:43;;;;;;;18.08;8.60;;;1.50;85.50;;;;;;9175425;19;20010;-72
2024/01/17 12:49:51;;;;;;;22.05;9.07;;;1.50;85.40;;;;;;9175713;19;20372;-72
2024/01/17 12:52:59;;;;;;;26.17;10.43;;;1.60;85.40;;;;;;9175658;19;20219;-72
2024/01/17 12:56:07;;;;;;;24.33;9.80;;;1.60;85.40;;;;;;9174606;19;20480;-72
2024/01/17 12:59:15;;;;;;;20.25;8.68;;;1.60;85.40;;;;;;9167801;19;20015;-72
2024/01/17 13:02:23;;;;;;;21.85;8.77;;;1.60;85.30;;;;;;9173174;19;20014;-73
2024/01/17 13:05:29;;;;;;;21.30;8.80;;;1.60;85.30;;;;;;9171054;19;20023;-72
2024/01/17 13:08:40;;;;;;;22.45;8.68;;;1.70;85.30;;;;;;9172172;19;20598;-73
2024/01/17 13:11:50;;;;;;;17.23;9.15;;;1.70;85.20;;;;;;9167563;19;20014;-72
2024/01/17 13:14:57;;;;;;;21.90;8.65;;;1.70;85.20;;;;;;9176159;19;20010;-72
2024/01/17 13:18:03;;;;;;;22.88;8.95;;;1.70;85.20;;;;;;9167562;19;20364;-72
2024/01/17 13:21:13;;;;;;;26.05;9.95;;;1.70;85.10;;;;;;9171671;19;20272;-72
2024/01/17 13:24:23;;;;;;;19.45;8.98;;;1.70;85.10;;;;;;9174455;19;20022;-72
2024/01/17 13:27:30;;;;;;;19.63;9.48;;;1.80;85.20;;;;;;9175334;19;20018;-72
2024/01/17 13:30:37;;;;;;;22.55;9.63;;;1.80;85.10;;;;;;9178219;19;20358;-72
2024/01/17 13:33:44;;;;;;;20.23;9.65;;;1.80;85.10;;;;;;9179384;19;20014;-72
2024/01/17 13:36:50;;;;;;;20.48;8.93;;;1.80;85.10;;;;;;9178413;19;20360;-72
2024/01/17 13:40:00;;;;;;;22.02;9.70;;;1.90;85.10;;;;;;9181150;19;20018;-73
2024/01/17 13:43:07;;;;;;;29.77;9.35;;;1.90;85.10;;;;;;9182096;19;20020;-72
2024/01/17 13:46:15;;;;;;;18.73;9.02;;;1.90;85.10;;;;;;9178174;19;20037;-72
2024/01/17 13:49:24;;;;;;;23.23;9.65;;;1.90;85.00;;;;;;9180421;19;20025;-72
2024/01/17 13:52:36;;;;;;;18.95;9.45;;;1.90;85.00;;;;;;9179998;19;20022;-72
2024/01/17 13:55:45;;;;;;;24.63;8.40;;;1.90;84.90;;;;;;9179184;19;20574;-72
2024/01/17 13:58:53;;;;;;;20.67;9.60;;;1.90;84.90;;;;;;9181610;19;20025;-71
2024/01/17 14:02:01;;;;;;;30.13;10.05;;;1.90;84.90;;;;;;9177194;19;20023;-72
2024/01/17 14:05:10;;;;;;;20.70;8.63;;;1.90;84.90;;;;;;9181102;19;20014;-72
2024/01/17 14:08:15;;;;;;;17.75;8.75;;;1.90;84.80;;;;;;9177365;19;20383;-72
2024/01/17 14:11:25;;;;;;;19.42;9.20;;;1.90;84.80;;;;;;9175093;19;20018;-71
2024/01/17 14:14:31;;;;;;;19.40;9.57;;;1.90;84.80;;;;;;9175954;19;20018;-71
2024/01/17 14:17:38;;;;;;;23.88;10.00;;;1.90;84.80;;;;;;9174913;19;20022;-72
2024/01/17 14:20:44;;;;;;;26.35;9.20;;;1.90;84.80;;;;;;9180601;19;20560;-72
2024/01/17 14:23:52;;;;;;;21.42;9.52;;;1.90;84.80;;;;;;9177890;19;20645;-72
2024/01/17 14:27:00;;;;;;;22.42;9.85;;;1.90;84.70;;;;;;9175995;19;20800;-73
2024/01/17 14:30:09;;;;;;;29.05;9.27;;;1.90;84.70;;;;;;9178128;19;20080;-73
2024/01/17 14:33:19;;;;;;;22.77;9.88;;;1.90;84.70;;;;;;9176941;19;20018;-72
2024/01/17 14:36:27;;;;;;;25.42;11.07;;;1.90;84.70;;;;;;9178513;19;20011;-72
2024/01/17 14:39:33;;;;;;;20.33;8.98;;;1.90;84.70;;;;;;9178699;19;20020;-72
2024/01/17 14:42:44;;;;;;;23.05;10.73;;;1.90;84.70;;;;;;9175956;19;20369;-72
2024/01/17 14:45:50;;;;;;;21.15;10.82;;;1.80;84.70;;;;;;9178527;19;20022;-73
2024/01/17 14:48:57;;;;;;;22.08;10.40;;;1.80;84.70;;;;;;9177717;19;20014;-76
2024/01/17 14:52:03;;;;;;;24.20;11.60;;;1.80;84.70;;;;;;9179330;19;20018;-73
2024/01/17 14:55:11;;;;;;;25.02;10.07;;;1.80;84.70;;;;;;9174829;19;20022;-73
2024/01/17 14:58:19;;;;;;;22.80;10.57;;;1.80;84.70;;;;;;9176312;19;20018;-72
2024/01/17 15:01:28;;;;;;;23.70;9.73;;;1.80;84.60;;;;;;9177239;19;20030;-73
2024/01/17 15:04:34;;;;;;;21.50;9.57;;;1.80;84.70;;;;;;9177301;19;20019;-73
2024/01/17 15:07:42;;;;;;;20.95;9.50;;;1.80;84.60;;;;;;9166665;19;20014;-72
2024/01/17 15:10:47;;;;;;;24.90;10.93;;;1.80;84.60;;;;;;9162154;19;20023;-72
2024/01/17 15:13:58;;;;;;;22.48;11.48;;;1.80;84.60;;;;;;9169762;19;20018;-72
2024/01/17 15:17:04;;;;;;;25.55;11.50;;;1.80;84.60;;;;;;9170247;19;20513;-72
2024/01/17 15:20:13;;;;;;;24.58;11.82;;;1.80;84.60;;;;;;9174347;19;20452;-72
2024/01/17 15:23:19;;;;;;;21.65;11.93;;;1.80;84.60;;;;;;9176328;19;20014;-74
2024/01/17 15:26:27;;;;;;;30.20;14.00;;;1.80;84.60;;;;;;9175133;19;20021;-73
2024/01/17 15:29:42;;;;;;;46.50;19.60;;;1.80;84.60;;;;;;9176080;19;20014;-76
2024/01/17 15:32:50;;;;;;;40.95;19.55;;;1.70;84.60;;;;;;9179017;19;20023;-72
2024/01/17 15:35:56;;;;;;;33.85;16.65;;;1.80;84.60;;;;;;9177676;19;20098;-72
2024/01/17 15:39:05;;;;;;;28.52;13.68;;;1.70;84.50;;;;;;9175123;19;20107;-72
2024/01/17 15:42:11;;;;;;;26.95;12.80;;;1.70;84.50;;;;;;9177175;19;20018;-72
2024/01/17 15:45:21;;;;;;;36.88;12.63;;;1.70;84.50;;;;;;9175665;19;20010;-73
2024/01/17 15:48:27;;;;;;;23.10;11.27;;;1.70;84.50;;;;;;9175869;19;20026;-72
2024/01/17 15:51:34;;;;;;;31.23;11.35;;;1.70;84.50;;;;;;9173151;19;20025;-72
2024/01/17 15:54:41;;;;;;;24.65;10.57;;;1.70;84.50;;;;;;9176301;19;20052;-71
2024/01/17 15:57:48;;;;;;;22.33;11.00;;;1.70;84.50;;;;;;9172925;19;20360;-73
2024/01/17 16:00:57;;;;;;;28.33;11.95;;;1.60;84.50;;;;;;9176352;19;20022;-72
2024/01/17 16:04:05;;;;;;;21.42;11.50;;;1.60;84.40;;;;;;9174560;19;20007;-70
2024/01/17 16:07:13;;;;;;;27.20;11.23;;;1.60;84.40;;;;;;9175840;19;20641;-71
2024/01/17 16:10:21;;;;;;;28.17;11.60;;;1.60;84.40;;;;;;9171924;19;20025;-71
2024/01/17 16:13:28;;;;;;;24.13;10.50;;;1.60;84.50;;;;;;9175579;19;20377;-70